createdAt,value
2018-08-16T00:00:44.526Z,16.40
2018-08-16T00:03:14.190Z,16.44
2018-08-16T00:05:43.912Z,16.49
2018-08-16T00:08:13.466Z,16.53
2018-08-16T00:10:43.800Z,16.50
2018-08-16T00:13:13.449Z,16.51
2018-08-16T00:15:43.063Z,16.48
2018-08-16T00:18:12.588Z,16.40
2018-08-16T00:20:42.153Z,16.39
2018-08-16T00:23:11.726Z,16.35
2018-08-16T00:25:41.339Z,16.37
2018-08-16T00:28:10.880Z,16.41
2018-08-16T00:30:40.497Z,16.44
2018-08-16T00:33:10.137Z,16.44
2018-08-16T00:35:39.715Z,16.37
2018-08-16T00:38:09.274Z,16.31
2018-08-16T00:40:38.952Z,16.25
2018-08-16T00:43:08.534Z,16.13
2018-08-16T00:45:38.142Z,16.11
2018-08-16T00:48:07.682Z,16.13
2018-08-16T00:50:37.123Z,16.06
2018-08-16T00:53:06.926Z,16.03
2018-08-16T00:55:36.443Z,16.12
2018-08-16T00:58:06.428Z,16.12
2018-08-16T01:00:35.892Z,16.05
2018-08-16T01:03:05.399Z,16.07
2018-08-16T01:05:34.934Z,16.14
2018-08-16T01:08:04.420Z,16.15
2018-08-16T01:10:33.973Z,16.10
2018-08-16T01:13:04.044Z,16.13
2018-08-16T01:15:33.624Z,16.17
2018-08-16T01:18:03.227Z,16.15
2018-08-16T01:20:32.825Z,16.18
2018-08-16T01:23:02.373Z,16.07
2018-08-16T01:25:31.894Z,16.03
2018-08-16T01:28:01.500Z,15.99
2018-08-16T01:30:31.022Z,15.99
2018-08-16T01:33:00.543Z,16.00
2018-08-16T01:35:30.033Z,15.88
2018-08-16T01:37:59.540Z,15.75
2018-08-16T01:40:28.988Z,15.79
2018-08-16T01:42:58.512Z,15.76
2018-08-16T01:45:28.062Z,15.76
2018-08-16T01:47:57.537Z,15.76
2018-08-16T01:50:27.057Z,15.73
2018-08-16T01:52:56.614Z,15.75
2018-08-16T01:55:26.173Z,15.74
2018-08-16T01:57:55.871Z,15.71
2018-08-16T02:00:25.478Z,15.69
2018-08-16T02:02:55.133Z,15.73
2018-08-16T02:05:24.760Z,15.72
2018-08-16T02:07:54.252Z,15.69
2018-08-16T02:10:23.883Z,15.59
2018-08-16T02:12:53.452Z,15.51
2018-08-16T02:15:23.050Z,15.42
2018-08-16T02:17:52.510Z,15.34
2018-08-16T02:20:22.169Z,15.41
2018-08-16T02:22:51.737Z,15.40
2018-08-16T02:25:21.220Z,15.49
2018-08-16T02:27:51.266Z,15.50
2018-08-16T02:30:20.763Z,15.45
2018-08-16T02:32:50.374Z,15.37
2018-08-16T02:35:19.854Z,15.35
2018-08-16T02:37:49.379Z,15.30
2018-08-16T02:40:18.932Z,15.23
2018-08-16T02:42:48.591Z,15.23
2018-08-16T02:45:18.263Z,15.20
2018-08-16T02:47:47.784Z,15.20
2018-08-16T02:50:17.330Z,15.17
2018-08-16T02:52:46.746Z,15.10
2018-08-16T02:55:16.266Z,15.06
2018-08-16T02:57:45.761Z,15.08
2018-08-16T03:00:15.288Z,15.08
2018-08-16T03:02:44.915Z,15.07
2018-08-16T03:05:14.360Z,15.09
2018-08-16T03:07:43.921Z,15.06
2018-08-16T03:10:13.367Z,14.95
2018-08-16T03:12:42.945Z,14.89
2018-08-16T03:15:12.537Z,14.83
2018-08-16T03:17:42.124Z,14.77
2018-08-16T03:20:11.613Z,14.80
2018-08-16T03:22:41.423Z,14.79
2018-08-16T03:25:10.994Z,14.85
2018-08-16T03:27:40.429Z,14.87
2018-08-16T03:30:10.081Z,14.85
2018-08-16T03:32:39.596Z,14.82
2018-08-16T03:35:09.213Z,14.78
2018-08-16T03:37:38.791Z,14.80
2018-08-16T03:40:08.844Z,14.78
2018-08-16T03:42:38.572Z,14.77
2018-08-16T03:45:08.767Z,14.83
2018-08-16T03:47:38.511Z,14.80
2018-08-16T03:50:08.816Z,14.75
2018-08-16T03:52:38.700Z,14.70
2018-08-16T03:55:08.307Z,14.68
2018-08-16T03:57:37.815Z,14.64
2018-08-16T04:00:08.291Z,14.58
2018-08-16T04:02:37.922Z,14.56
2018-08-16T04:05:08.240Z,14.63
2018-08-16T04:07:37.789Z,14.76
2018-08-16T04:10:07.401Z,14.78
2018-08-16T04:12:36.906Z,14.79
2018-08-16T04:15:06.392Z,14.79
2018-08-16T04:17:37.111Z,14.77
2018-08-16T04:20:07.659Z,14.80
2018-08-16T04:22:37.248Z,14.85
2018-08-16T04:25:06.800Z,14.81
2018-08-16T04:27:36.272Z,14.86
2018-08-16T04:30:06.973Z,14.90
2018-08-16T04:32:37.324Z,14.99
2018-08-16T04:35:06.935Z,15.03
2018-08-16T04:37:36.530Z,15.02
2018-08-16T04:40:06.529Z,15.05
2018-08-16T04:42:36.002Z,15.11
2018-08-16T04:45:07.524Z,15.15
2018-08-16T04:47:37.056Z,15.21
2018-08-16T04:50:09.861Z,15.29
2018-08-16T04:52:39.769Z,15.33
2018-08-16T04:55:10.293Z,15.29
2018-08-16T04:57:40.006Z,15.23
2018-08-16T05:00:12.304Z,15.23
2018-08-16T05:02:41.774Z,15.36
2018-08-16T05:05:11.398Z,15.35
2018-08-16T05:07:41.007Z,15.39
2018-08-16T05:10:11.658Z,15.46
2018-08-16T05:12:41.162Z,15.58
2018-08-16T05:15:13.353Z,15.60
2018-08-16T05:17:42.990Z,15.69
2018-08-16T05:20:13.629Z,15.79
2018-08-16T05:22:43.163Z,15.95
2018-08-16T05:25:12.862Z,16.00
2018-08-16T05:27:42.466Z,16.15
2018-08-16T05:30:13.196Z,16.27
2018-08-16T05:32:42.841Z,16.46
2018-08-16T05:35:13.375Z,16.60
2018-08-16T05:37:43.012Z,16.69
2018-08-16T05:40:12.568Z,16.77
2018-08-16T05:42:42.102Z,16.84
2018-08-16T05:45:11.726Z,16.96
2018-08-16T05:47:41.201Z,16.98
2018-08-16T05:50:12.584Z,17.06
2018-08-16T05:52:42.669Z,17.11
2018-08-16T05:55:12.134Z,17.22
2018-08-16T05:57:42.021Z,17.28
2018-08-16T06:00:14.130Z,17.33
2018-08-16T06:02:43.557Z,17.43
2018-08-16T06:05:13.311Z,17.48
2018-08-16T06:07:42.999Z,17.56
2018-08-16T06:10:12.888Z,17.60
2018-08-16T06:12:42.528Z,17.67
2018-08-16T06:15:12.141Z,17.73
2018-08-16T06:17:41.684Z,17.82
2018-08-16T06:20:12.678Z,17.87
2018-08-16T06:22:42.458Z,17.95
2018-08-16T06:25:13.541Z,18.03
2018-08-16T06:27:43.489Z,18.09
2018-08-16T06:30:16.101Z,18.14
2018-08-16T06:32:46.192Z,18.28
2018-08-16T06:35:16.211Z,18.28
2018-08-16T06:37:45.801Z,18.35
2018-08-16T06:40:17.537Z,18.46
2018-08-16T06:42:48.098Z,18.52
2018-08-16T06:45:17.797Z,18.65
2018-08-16T06:47:47.563Z,18.76
2018-08-16T06:50:17.069Z,18.80
2018-08-16T06:52:46.576Z,18.91
2018-08-16T06:55:16.178Z,19.04
2018-08-16T06:57:45.743Z,19.26
2018-08-16T07:00:15.587Z,19.47
2018-08-16T07:02:45.220Z,19.65
2018-08-16T07:05:14.741Z,19.84
2018-08-16T07:07:44.244Z,20.09
2018-08-16T07:10:14.744Z,20.31
2018-08-16T07:12:44.177Z,20.62
2018-08-16T07:15:15.565Z,20.72
2018-08-16T07:17:45.634Z,20.83
2018-08-16T07:20:15.238Z,21.01
2018-08-16T07:22:44.742Z,21.17
2018-08-16T07:25:14.348Z,21.28
2018-08-16T07:27:43.954Z,21.44
2018-08-16T07:30:13.466Z,21.54
2018-08-16T07:32:43.624Z,21.61
2018-08-16T07:35:13.226Z,21.56
2018-08-16T07:37:42.849Z,21.48
2018-08-16T07:40:12.434Z,21.45
2018-08-16T07:42:41.920Z,21.34
2018-08-16T07:45:12.395Z,21.20
2018-08-16T07:47:41.871Z,21.14
2018-08-16T07:50:12.344Z,21.24
2018-08-16T07:52:42.111Z,21.24
2018-08-16T07:55:11.989Z,21.27
2018-08-16T07:57:41.535Z,21.29
2018-08-16T08:00:16.086Z,21.35
2018-08-16T08:02:45.976Z,21.43
2018-08-16T08:05:15.581Z,21.58
2018-08-16T08:07:45.263Z,21.65
2018-08-16T08:10:14.809Z,21.77
2018-08-16T08:12:44.461Z,21.74
2018-08-16T08:15:15.331Z,21.64
2018-08-16T08:17:44.844Z,21.64
2018-08-16T08:20:16.623Z,21.74
2018-08-16T08:22:46.919Z,21.83
2018-08-16T08:25:16.545Z,22.01
2018-08-16T08:27:46.207Z,22.28
2018-08-16T08:30:17.245Z,22.27
2018-08-16T08:32:46.766Z,22.23
2018-08-16T08:35:16.465Z,22.20
2018-08-16T08:38:02.761Z,22.34
2018-08-16T08:40:32.429Z,22.43
2018-08-16T08:43:01.912Z,22.50
2018-08-16T08:45:31.545Z,22.60
2018-08-16T08:48:01.211Z,22.82
2018-08-16T08:50:30.911Z,23.02
2018-08-16T08:53:17.151Z,23.15
2018-08-16T08:56:03.687Z,23.29
2018-08-16T08:58:51.517Z,23.31
2018-08-16T09:01:21.026Z,23.41
2018-08-16T09:03:50.487Z,23.29
2018-08-16T09:06:19.935Z,23.28
2018-08-16T09:08:49.482Z,23.13
2018-08-16T09:11:35.949Z,22.95
2018-08-16T09:14:22.476Z,22.94
2018-08-16T09:16:52.036Z,23.08
2018-08-16T09:19:21.552Z,23.12
2018-08-16T09:21:51.176Z,23.27
2018-08-16T09:24:20.781Z,23.21
2018-08-16T09:26:50.399Z,23.36
2018-08-16T09:30:40.372Z,23.49
2018-08-16T09:33:26.815Z,23.68
2018-08-16T09:35:56.443Z,23.77
2018-08-16T09:38:25.970Z,23.84
2018-08-16T09:40:55.421Z,23.77
2018-08-16T09:43:24.923Z,23.86
2018-08-16T09:47:09.622Z,23.86
2018-08-16T09:49:48.375Z,24.01
2018-08-16T09:52:18.216Z,24.14
2018-08-16T09:54:48.586Z,24.15
2018-08-16T09:57:18.512Z,24.29
2018-08-16T09:59:48.081Z,24.37
2018-08-16T10:02:18.716Z,24.31
2018-08-16T10:04:48.092Z,24.20
2018-08-16T10:07:17.625Z,24.21
2018-08-16T10:09:47.178Z,24.26
2018-08-16T10:12:16.829Z,24.30
2018-08-16T10:14:46.285Z,24.38
2018-08-16T10:17:15.761Z,24.46
2018-08-16T10:19:45.465Z,24.45
2018-08-16T10:22:15.021Z,24.63
2018-08-16T10:24:44.513Z,24.76
2018-08-16T10:27:13.957Z,24.85
2018-08-16T10:29:43.387Z,24.94
2018-08-16T10:32:12.997Z,25.02
2018-08-16T10:34:42.468Z,25.17
2018-08-16T10:37:11.945Z,25.31
2018-08-16T10:39:41.373Z,25.58
2018-08-16T10:42:10.910Z,25.66
2018-08-16T10:44:40.313Z,25.82
2018-08-16T10:47:09.809Z,25.74
2018-08-16T10:49:39.286Z,25.91
2018-08-16T10:52:08.778Z,25.88
2018-08-16T10:54:38.329Z,26.11
2018-08-16T10:57:07.802Z,25.94
2018-08-16T10:59:37.252Z,25.82
2018-08-16T11:02:07.171Z,25.98
2018-08-16T11:04:37.499Z,26.07
2018-08-16T11:07:07.249Z,26.11
2018-08-16T11:09:36.720Z,26.35
2018-08-16T11:12:06.538Z,26.38
2018-08-16T11:14:36.016Z,26.32
2018-08-16T11:17:05.606Z,26.43
2018-08-16T11:19:35.098Z,26.35
2018-08-16T11:22:04.687Z,26.30
2018-08-16T11:24:34.441Z,26.61
2018-08-16T11:27:04.264Z,26.75
2018-08-16T11:29:33.900Z,26.90
2018-08-16T11:32:03.583Z,26.79
2018-08-16T11:34:33.115Z,26.53
2018-08-16T11:37:02.751Z,26.55
2018-08-16T11:39:32.312Z,26.51
2018-08-16T11:42:01.819Z,26.65
2018-08-16T11:44:31.342Z,26.40
2018-08-16T11:47:00.910Z,26.59
2018-08-16T11:49:30.396Z,26.75
2018-08-16T11:52:00.058Z,27.05
2018-08-16T11:54:29.473Z,27.46
2018-08-16T11:56:58.932Z,27.35
2018-08-16T11:59:28.838Z,27.65
2018-08-16T12:01:58.304Z,27.52
2018-08-16T12:04:27.697Z,27.53
2018-08-16T12:06:57.205Z,27.72
2018-08-16T12:09:26.657Z,27.98
2018-08-16T12:11:56.366Z,27.82
2018-08-16T12:14:25.941Z,28.20
2018-08-16T12:16:55.506Z,28.22
2018-08-16T12:19:25.058Z,28.52
2018-08-16T12:21:54.610Z,28.17
2018-08-16T12:24:24.136Z,28.34
2018-08-16T12:26:53.704Z,28.16
2018-08-16T12:29:24.820Z,28.48
2018-08-16T12:31:54.904Z,29.06
2018-08-16T12:34:24.425Z,29.90
2018-08-16T12:36:54.046Z,29.95
2018-08-16T12:39:23.513Z,30.64
2018-08-16T12:41:53.113Z,30.88
2018-08-16T12:44:22.677Z,31.56
2018-08-16T12:46:52.137Z,32.89
2018-08-16T12:49:21.707Z,34.13
2018-08-16T12:51:51.333Z,32.96
2018-08-16T12:54:20.866Z,34.99
2018-08-16T12:56:50.399Z,35.15
2018-08-16T12:59:19.916Z,35.65
2018-08-16T13:01:49.428Z,35.50
2018-08-16T13:04:19.020Z,36.39
2018-08-16T13:06:48.519Z,36.39
2018-08-16T13:09:18.135Z,36.24
2018-08-16T13:11:47.803Z,36.44
2018-08-16T13:14:17.257Z,36.43
2018-08-16T13:16:46.718Z,37.11
2018-08-16T13:19:16.368Z,36.99
2018-08-16T13:21:45.857Z,37.09
2018-08-16T13:24:15.504Z,37.65
2018-08-16T13:26:44.997Z,38.50
2018-08-16T13:29:14.622Z,37.65
2018-08-16T13:31:44.305Z,37.14
2018-08-16T13:34:13.832Z,36.70
2018-08-16T13:36:43.374Z,36.24
2018-08-16T13:39:14.513Z,37.30
2018-08-16T13:41:44.055Z,37.75
2018-08-16T13:44:13.604Z,37.17
2018-08-16T13:46:43.081Z,35.24
2018-08-16T13:49:12.717Z,36.27
2018-08-16T13:51:42.177Z,37.84
2018-08-16T13:54:11.710Z,38.19
2018-08-16T13:56:41.267Z,38.69
2018-08-16T13:59:11.217Z,38.99
2018-08-16T14:01:40.955Z,38.04
2018-08-16T14:04:11.114Z,40.23
2018-08-16T14:06:40.681Z,39.32
2018-08-16T14:09:11.865Z,39.45
2018-08-16T14:11:41.440Z,38.18
2018-08-16T14:14:10.936Z,37.28
2018-08-16T14:16:41.090Z,37.28
2018-08-16T14:19:10.823Z,35.83
2018-08-16T14:21:40.385Z,34.62
2018-08-16T14:24:10.144Z,35.29
2018-08-16T14:26:39.678Z,35.55
2018-08-16T14:29:09.141Z,36.05
2018-08-16T14:31:38.793Z,36.95
2018-08-16T14:34:08.291Z,36.14
2018-08-16T14:36:37.890Z,36.23
2018-08-16T14:39:10.190Z,35.21
2018-08-16T14:41:39.733Z,34.46
2018-08-16T14:44:09.292Z,34.33
2018-08-16T14:46:38.816Z,33.94
2018-08-16T14:49:08.341Z,34.20
2018-08-16T14:51:37.978Z,34.98
2018-08-16T14:54:08.090Z,35.76
2018-08-16T14:56:37.517Z,37.15
2018-08-16T14:59:07.178Z,37.59
2018-08-16T15:01:36.802Z,37.76
2018-08-16T15:04:06.405Z,37.88
2018-08-16T15:06:35.869Z,37.26
2018-08-16T15:09:09.199Z,35.81
2018-08-16T15:11:38.882Z,35.47
2018-08-16T15:14:08.558Z,34.77
2018-08-16T15:16:38.162Z,34.58
2018-08-16T15:19:07.712Z,34.13
2018-08-16T15:21:37.217Z,33.51
2018-08-16T15:24:06.799Z,34.24
2018-08-16T15:26:36.409Z,34.72
2018-08-16T15:29:05.950Z,34.37
2018-08-16T15:31:35.483Z,34.16
2018-08-16T15:34:05.080Z,34.94
2018-08-16T15:36:34.568Z,34.62
2018-08-16T15:39:06.149Z,34.81
2018-08-16T15:41:35.908Z,34.00
2018-08-16T15:44:05.664Z,33.51
2018-08-16T15:46:35.296Z,34.28
2018-08-16T15:49:05.018Z,34.27
2018-08-16T15:51:35.117Z,34.11
2018-08-16T15:54:04.749Z,35.40
2018-08-16T15:56:34.206Z,35.41
2018-08-16T15:59:03.795Z,35.44
2018-08-16T16:01:33.331Z,35.85
2018-08-16T16:04:02.941Z,35.87
2018-08-16T16:06:32.511Z,35.49
2018-08-16T16:09:01.951Z,35.00
2018-08-16T16:11:31.444Z,34.81
2018-08-16T16:14:00.947Z,34.83
2018-08-16T16:16:30.546Z,34.02
2018-08-16T16:19:00.067Z,33.97
2018-08-16T16:21:29.587Z,33.11
2018-08-16T16:23:59.127Z,32.90
2018-08-16T16:26:28.791Z,33.20
2018-08-16T16:28:58.269Z,34.20
2018-08-16T16:31:27.809Z,34.18
2018-08-16T16:33:57.465Z,33.65
2018-08-16T16:36:27.011Z,34.24
2018-08-16T16:38:56.561Z,33.84
2018-08-16T16:41:26.016Z,33.29
2018-08-16T16:43:55.556Z,32.90
2018-08-16T16:46:25.124Z,33.19
2018-08-16T16:48:54.782Z,32.95
2018-08-16T16:51:24.361Z,33.65
2018-08-16T16:53:53.869Z,33.58
2018-08-16T16:56:23.477Z,33.76
2018-08-16T16:58:53.276Z,34.22
2018-08-16T17:01:22.811Z,33.55
2018-08-16T17:03:52.291Z,32.67
2018-08-16T17:06:21.844Z,32.41
2018-08-16T17:08:51.307Z,31.98
2018-08-16T17:11:20.842Z,31.67
2018-08-16T17:13:50.413Z,31.84
2018-08-16T17:16:19.979Z,31.75
2018-08-16T17:18:49.447Z,31.62
2018-08-16T17:21:19.026Z,31.48
2018-08-16T17:23:48.538Z,30.76
2018-08-16T17:26:18.175Z,29.96
2018-08-16T17:28:47.644Z,29.16
2018-08-16T17:31:17.164Z,29.02
2018-08-16T17:33:46.712Z,28.68
2018-08-16T17:36:16.188Z,28.37
2018-08-16T17:38:45.818Z,28.34
2018-08-16T17:41:15.297Z,27.94
2018-08-16T17:43:44.807Z,27.90
2018-08-16T17:46:14.993Z,27.88
2018-08-16T17:48:44.514Z,27.79
2018-08-16T17:51:13.944Z,27.55
2018-08-16T17:53:43.517Z,27.37
2018-08-16T17:56:13.141Z,27.32
2018-08-16T17:58:42.713Z,27.09
2018-08-16T18:01:12.952Z,26.93
2018-08-16T18:03:42.540Z,26.79
2018-08-16T18:06:12.097Z,26.84
2018-08-16T18:08:42.034Z,26.79
2018-08-16T18:11:12.810Z,26.78
2018-08-16T18:13:42.267Z,26.60
2018-08-16T18:16:11.783Z,26.63
2018-08-16T18:18:41.280Z,26.46
2018-08-16T18:21:10.793Z,26.45
2018-08-16T18:23:40.271Z,26.41
2018-08-16T18:26:09.680Z,26.31
2018-08-16T18:28:39.226Z,26.13
2018-08-16T18:31:08.677Z,26.04
2018-08-16T18:33:38.340Z,26.03
2018-08-16T18:36:08.091Z,25.95
2018-08-16T18:38:37.630Z,25.77
2018-08-16T18:41:07.490Z,25.68
2018-08-16T18:43:36.981Z,25.51
2018-08-16T18:46:07.130Z,25.56
2018-08-16T18:48:36.768Z,25.52
2018-08-16T18:51:06.264Z,25.39
2018-08-16T18:53:35.945Z,25.28
2018-08-16T18:56:05.683Z,25.14
2018-08-16T18:58:35.397Z,25.20
2018-08-16T19:01:05.117Z,25.06
2018-08-16T19:03:34.569Z,25.02
2018-08-16T19:06:04.081Z,24.98
2018-08-16T19:08:33.565Z,24.84
2018-08-16T19:11:03.095Z,24.72
2018-08-16T19:13:32.871Z,24.59
2018-08-16T19:16:02.410Z,24.52
2018-08-16T19:18:32.031Z,24.52
2018-08-16T19:21:01.504Z,24.42
2018-08-16T19:23:30.985Z,24.32
2018-08-16T19:26:00.496Z,24.29
2018-08-16T19:28:30.864Z,24.13
2018-08-16T19:31:00.972Z,24.10
2018-08-16T19:33:31.120Z,24.03
2018-08-16T19:36:00.767Z,24.05
2018-08-16T19:38:30.336Z,23.91
2018-08-16T19:40:59.887Z,23.79
2018-08-16T19:43:29.326Z,23.63
2018-08-16T19:45:58.836Z,23.58
2018-08-16T19:48:28.489Z,23.49
2018-08-16T19:50:57.945Z,23.36
2018-08-16T19:53:27.457Z,23.32
2018-08-16T19:55:56.987Z,23.15
2018-08-16T19:58:26.458Z,23.22
2018-08-16T20:00:55.997Z,23.11
2018-08-16T20:03:25.523Z,23.00
2018-08-16T20:05:55.243Z,22.89
2018-08-16T20:08:24.822Z,22.88
2018-08-16T20:10:54.358Z,22.75
2018-08-16T20:13:23.819Z,22.75
2018-08-16T20:15:53.551Z,22.63
2018-08-16T20:18:23.181Z,22.69
2018-08-16T20:20:52.746Z,22.58
2018-08-16T20:23:22.224Z,22.59
2018-08-16T20:25:51.854Z,22.45
2018-08-16T20:28:21.468Z,22.45
2018-08-16T20:30:50.960Z,22.37
2018-08-16T20:33:20.917Z,22.29
2018-08-16T20:35:50.371Z,22.24
2018-08-16T20:38:19.993Z,22.17
2018-08-16T20:40:49.620Z,22.14
2018-08-16T20:43:19.434Z,22.18
2018-08-16T20:45:49.022Z,22.12
2018-08-16T20:48:18.553Z,21.97
2018-08-16T20:50:48.428Z,21.89
2018-08-16T20:53:17.985Z,22.00
2018-08-16T20:55:47.646Z,21.87
2018-08-16T20:58:17.177Z,21.92
2018-08-16T21:00:46.858Z,21.76
2018-08-16T21:03:16.360Z,21.75
2018-08-16T21:05:45.920Z,21.66
2018-08-16T21:08:15.401Z,21.57
2018-08-16T21:10:45.033Z,21.52
2018-08-16T21:13:14.525Z,21.46
2018-08-16T21:15:44.013Z,21.44
2018-08-16T21:18:13.724Z,21.20
2018-08-16T21:20:43.442Z,21.23
2018-08-16T21:23:13.042Z,21.16
2018-08-16T21:25:42.597Z,21.16
2018-08-16T21:28:12.052Z,21.05
2018-08-16T21:30:41.708Z,20.96
2018-08-16T21:33:11.525Z,20.92
2018-08-16T21:35:41.276Z,20.90
2018-08-16T21:38:10.920Z,20.87
2018-08-16T21:40:40.425Z,20.82
2018-08-16T21:43:10.044Z,20.65
2018-08-16T21:45:39.541Z,20.71
2018-08-16T21:48:09.029Z,20.72
2018-08-16T21:50:38.594Z,20.74
2018-08-16T21:53:08.051Z,20.65
2018-08-16T21:55:37.528Z,20.61
2018-08-16T21:58:07.373Z,20.65
2018-08-16T22:00:49.699Z,20.59
2018-08-16T22:03:20.603Z,20.53
2018-08-16T22:06:08.115Z,20.50
2018-08-16T22:08:49.365Z,20.47
2018-08-16T22:11:19.217Z,20.37
2018-08-16T22:13:49.371Z,20.30
2018-08-16T22:16:18.915Z,20.27
2018-08-16T22:18:48.358Z,20.19
2018-08-16T22:21:17.963Z,20.13
2018-08-16T22:23:47.560Z,20.01
2018-08-16T22:26:17.525Z,20.10
2018-08-16T22:28:47.120Z,20.09
2018-08-16T22:31:16.647Z,20.03
2018-08-16T22:33:46.273Z,20.05
2018-08-16T22:36:15.761Z,19.96
2018-08-16T22:38:45.311Z,19.98
2018-08-16T22:41:14.898Z,19.81
2018-08-16T22:43:44.356Z,19.75
2018-08-16T22:46:13.877Z,19.71
2018-08-16T22:48:43.489Z,19.71
2018-08-16T22:51:13.019Z,19.77
2018-08-16T22:53:42.680Z,19.78
2018-08-16T22:56:12.181Z,19.74
2018-08-16T22:58:41.924Z,19.77
2018-08-16T23:01:11.407Z,19.72
2018-08-16T23:03:40.913Z,19.69
2018-08-16T23:06:10.565Z,19.63
2018-08-16T23:08:40.108Z,19.61
2018-08-16T23:11:09.671Z,19.56
2018-08-16T23:13:39.293Z,19.47
2018-08-16T23:16:09.096Z,19.52
2018-08-16T23:18:39.131Z,19.51
2018-08-16T23:21:08.615Z,19.40
2018-08-16T23:23:38.182Z,19.42
2018-08-16T23:26:08.029Z,19.42
2018-08-16T23:28:37.498Z,19.44
2018-08-16T23:31:07.215Z,19.45
2018-08-16T23:33:36.780Z,19.41
2018-08-16T23:36:06.225Z,19.50
2018-08-16T23:38:35.640Z,19.48
2018-08-16T23:41:05.289Z,19.33
2018-08-16T23:43:34.769Z,19.37
2018-08-16T23:46:04.319Z,19.37
2018-08-16T23:48:33.904Z,19.31
2018-08-16T23:51:03.543Z,19.22
2018-08-16T23:53:33.032Z,18.94
2018-08-16T23:56:02.599Z,18.82
2018-08-16T23:58:32.350Z,18.72
